KANJ

Sault Ste Marie Municipal / Sanderson Field Airport

Sault Ste Marie, Michigan, USA
METAR KANJ 201255Z AUTO 31010G23KT 10SM FEW028 04/M02 A2962 RMK AO2 SLP031 T00391017
Observed Flight Rules
Oct-20 @ 12:55 UTC (18 minutes ago) Visual Flight Rules
Wind Visibility Clouds
310° at 10 knots
 Gusting to 23 knots
10 miles
  • Few at 2,800' AGL
Temperatures Readings
Current 4°C / 39°F
Dewpoint -2°C / 28°F
Humidity 65%
Altimeter 29.62" Hg
Pressure 1003.1 hPa
Elevation 218
METAR KANJ 201255Z AUTO 31010G23KT 10SM FEW028 04/M02 A2962 RMK AO2 SLP031 T00391017
Observed Flight Rules
Oct-20 @ 12:55 UTC
(18 minutes ago)
VFR
Wind Visibility
310° at 10 knots
 Gusting to 23 knots
10 miles
Clouds
  • Few at 2,800' AGL
Temperature Dewpoint
4°C / 39°F -2°C / 28°F
Humidity Altimeter Pressure
65% 29.62" Hg 1003.1 hPa